createdAt,value
2018-02-15T00:00:51.237Z,106.1763
2018-02-15T00:01:56.425Z,106.4273
2018-02-15T00:03:01.608Z,106.932
2018-02-15T00:04:07.367Z,106.4273
2018-02-15T00:05:12.548Z,105.9226
2018-02-15T00:06:17.757Z,106.681
2018-02-15T00:07:23.340Z,107.1857
2018-02-15T00:08:28.805Z,106.932
2018-02-15T00:09:34.538Z,106.932
2018-02-15T00:10:39.460Z,107.4367
2018-02-15T00:11:44.365Z,108.3615
2018-02-15T00:12:49.818Z,108.6152
2018-02-15T00:13:55.006Z,108.3615
2018-02-15T00:15:00.193Z,109.3709
2018-02-15T00:16:05.453Z,109.1199
2018-02-15T00:17:10.979Z,109.6245
2018-02-15T00:18:16.159Z,109.1199
2018-02-15T00:19:21.882Z,109.8756
2018-02-15T00:20:27.057Z,110.3802
2018-02-15T00:21:32.974Z,109.3709
2018-02-15T00:22:38.450Z,110.1292
2018-02-15T00:23:43.396Z,109.3709
2018-02-15T00:24:48.337Z,110.1292
2018-02-15T00:25:53.231Z,109.1199
2018-02-15T00:26:58.705Z,109.3709
2018-02-15T00:28:04.736Z,108.1105
2018-02-15T00:29:09.633Z,108.6152
2018-02-15T00:30:14.810Z,109.1199
2018-02-15T00:31:20.352Z,108.8662
2018-02-15T00:32:25.248Z,108.8662
2018-02-15T00:33:31.030Z,109.8756
2018-02-15T00:34:36.498Z,109.1199
2018-02-15T00:35:41.576Z,110.3802
2018-02-15T00:36:46.877Z,109.3709
2018-02-15T00:37:51.793Z,110.5493
2018-02-15T00:38:57.018Z,110.1292
2018-02-15T00:40:02.576Z,109.8756
2018-02-15T00:41:08.072Z,109.8756
2018-02-15T00:42:13.531Z,108.8662
2018-02-15T00:43:19.415Z,108.6152
2018-02-15T00:44:24.914Z,107.9414
2018-02-15T00:45:30.824Z,107.6877
2018-02-15T00:46:36.296Z,107.1857
2018-02-15T00:47:41.495Z,106.932
2018-02-15T00:48:47.560Z,107.4367
2018-02-15T00:49:52.797Z,106.681
2018-02-15T00:50:57.711Z,107.4367
2018-02-15T00:52:03.134Z,106.932
2018-02-15T00:53:08.345Z,106.4273
2018-02-15T00:54:13.799Z,106.932
2018-02-15T00:55:19.351Z,107.6877
2018-02-15T00:56:24.819Z,107.6877
2018-02-15T00:57:30.689Z,106.681
2018-02-15T00:58:36.180Z,107.6877
2018-02-15T00:59:41.657Z,107.6877
2018-02-15T01:00:47.194Z,107.4367
2018-02-15T01:01:52.652Z,106.4273
2018-02-15T01:02:58.113Z,106.932
2018-02-15T01:04:03.839Z,107.9414
2018-02-15T01:05:09.288Z,107.1857
2018-02-15T01:06:14.213Z,107.4367
2018-02-15T01:07:19.747Z,107.6877
2018-02-15T01:08:24.933Z,107.9414
2018-02-15T01:09:30.017Z,108.1105
2018-02-15T01:10:35.490Z,107.9414
2018-02-15T01:11:40.954Z,107.4367
2018-02-15T01:12:46.699Z,108.3615
2018-02-15T01:13:51.892Z,107.6877
2018-02-15T01:14:57.365Z,107.9414
2018-02-15T01:16:02.819Z,108.3615
2018-02-15T01:17:08.020Z,108.1105
2018-02-15T01:18:13.510Z,109.1199
2018-02-15T01:19:18.996Z,109.6245
2018-02-15T01:20:24.452Z,109.1199
2018-02-15T01:21:30.169Z,110.1292
2018-02-15T01:22:35.651Z,110.1292
2018-02-15T01:23:41.110Z,110.803
2018-02-15T01:24:46.935Z,110.803
2018-02-15T01:25:52.394Z,110.5493
2018-02-15T01:26:57.868Z,111.3051
2018-02-15T01:28:03.320Z,111.3051
2018-02-15T01:29:08.505Z,112.5681
2018-02-15T01:30:13.402Z,112.3171
2018-02-15T01:31:19.144Z,111.8124
2018-02-15T01:32:24.339Z,112.9882
2018-02-15T01:33:29.729Z,111.8124
2018-02-15T01:34:34.922Z,110.803
2018-02-15T01:35:40.413Z,111.8124
2018-02-15T01:36:45.563Z,112.3171
2018-02-15T01:37:50.478Z,111.8124
2018-02-15T01:38:55.395Z,112.5681
2018-02-15T01:40:00.661Z,112.8217
2018-02-15T01:41:05.546Z,112.9882
2018-02-15T01:42:10.740Z,114.4203
2018-02-15T01:43:16.183Z,115.5988
2018-02-15T01:44:21.095Z,113.4929
2018-02-15T01:45:41.359Z,112.9882
2018-02-15T01:46:46.531Z,113.2419
2018-02-15T01:47:52.005Z,112.5681
2018-02-15T01:48:57.308Z,112.3171
2018-02-15T01:50:02.488Z,111.8124
2018-02-15T01:51:07.695Z,112.0634
2018-02-15T01:52:13.048Z,111.8124
2018-02-15T01:53:18.561Z,113.2419
2018-02-15T01:54:23.760Z,113.4929
2018-02-15T01:55:29.421Z,111.8124
2018-02-15T01:56:34.593Z,112.9882
2018-02-15T01:57:40.408Z,113.4929
2018-02-15T01:58:45.016Z,113.2419
2018-02-15T01:59:49.919Z,113.9157
2018-02-15T02:00:55.890Z,113.662
2018-02-15T02:02:00.798Z,113.662
2018-02-15T02:03:05.704Z,113.4929
2018-02-15T02:04:10.952Z,113.662
2018-02-15T02:05:16.426Z,114.1667
2018-02-15T02:06:21.891Z,113.9157
2018-02-15T02:07:27.898Z,115.1787
2018-02-15T02:08:33.396Z,115.5988
2018-02-15T02:09:38.851Z,116.6082
2018-02-15T02:10:44.322Z,117.1129
2018-02-15T02:11:49.502Z,116.6082
2018-02-15T02:12:55.005Z,116.6082
2018-02-15T02:13:59.939Z,118.0403
2018-02-15T02:15:05.131Z,116.8618
2018-02-15T02:16:10.619Z,117.6176
2018-02-15T02:17:16.101Z,117.1129
2018-02-15T02:18:21.284Z,116.8618
2018-02-15T02:19:41.273Z,115.8498
2018-02-15T02:20:46.741Z,116.8618
2018-02-15T02:21:52.194Z,116.1035
2018-02-15T02:22:57.080Z,116.8618
2018-02-15T02:24:02.264Z,117.3665
2018-02-15T02:25:08.029Z,118.0403
2018-02-15T02:26:13.513Z,119.0497
2018-02-15T02:27:18.701Z,117.8712
2018-02-15T02:28:24.714Z,119.3034
2018-02-15T02:29:30.174Z,119.0497
2018-02-15T02:30:36.068Z,120.3127
2018-02-15T02:31:40.953Z,118.7987
2018-02-15T02:32:46.433Z,118.7987
2018-02-15T02:33:51.849Z,118.7987
2018-02-15T02:34:57.331Z,118.545
2018-02-15T02:36:02.800Z,119.0497
2018-02-15T02:37:08.516Z,118.545
2018-02-15T02:38:14.051Z,119.3034
2018-02-15T02:39:19.540Z,117.8712
2018-02-15T02:40:24.739Z,118.2913
2018-02-15T02:41:30.205Z,119.0497
2018-02-15T02:42:35.922Z,118.545
2018-02-15T02:43:41.377Z,118.7987
2018-02-15T02:44:46.565Z,118.545
2018-02-15T02:45:52.283Z,119.5544
2018-02-15T02:46:57.172Z,118.7987
2018-02-15T02:48:01.814Z,118.7987
2018-02-15T02:49:06.985Z,118.7987
2018-02-15T02:50:12.452Z,119.3034
2018-02-15T02:51:17.926Z,118.0403
2018-02-15T02:52:23.755Z,118.545
2018-02-15T02:53:29.222Z,119.808
2018-02-15T02:54:34.952Z,118.7987
2018-02-15T02:55:39.864Z,120.0591
2018-02-15T02:56:45.313Z,120.5664
2018-02-15T02:57:50.774Z,120.3127
2018-02-15T02:58:56.263Z,121.7449
2018-02-15T03:00:01.735Z,120.3127
2018-02-15T03:01:07.001Z,121.4912
2018-02-15T03:02:12.188Z,121.7449
2018-02-15T03:03:17.371Z,122.5032
2018-02-15T03:04:23.084Z,123.0079
2018-02-15T03:05:28.278Z,123.6817
2018-02-15T03:06:34.096Z,123.6817
2018-02-15T03:07:39.010Z,122.7542
2018-02-15T03:08:44.461Z,123.428
2018-02-15T03:09:49.863Z,123.0079
2018-02-15T03:10:55.052Z,123.6817
2018-02-15T03:12:00.222Z,123.428
2018-02-15T03:13:05.107Z,122.7542
2018-02-15T03:14:10.562Z,122.7542
2018-02-15T03:15:15.771Z,123.6817
2018-02-15T03:16:21.049Z,123.177
2018-02-15T03:17:26.224Z,123.0079
2018-02-15T03:18:31.954Z,123.9353
2018-02-15T03:19:37.131Z,124.1864
2018-02-15T03:20:42.345Z,124.1864
2018-02-15T03:21:48.069Z,123.0079
2018-02-15T03:22:53.548Z,123.428
2018-02-15T03:23:59.026Z,123.428
2018-02-15T03:25:04.515Z,123.9353
2018-02-15T03:26:09.720Z,123.9353
2018-02-15T03:27:14.925Z,123.9353
2018-02-15T03:28:20.470Z,123.9353
2018-02-15T03:29:25.660Z,123.6817
2018-02-15T03:30:31.394Z,124.1864
2018-02-15T03:31:36.858Z,124.9447
2018-02-15T03:32:42.039Z,124.6937
2018-02-15T03:33:47.569Z,124.44
2018-02-15T03:34:53.049Z,124.9447
2018-02-15T03:35:58.252Z,124.6937
2018-02-15T03:37:04.185Z,125.1984
2018-02-15T03:38:09.660Z,124.6937
2018-02-15T03:39:14.888Z,125.452
2018-02-15T03:40:20.663Z,124.9447
2018-02-15T03:41:26.466Z,124.1864
2018-02-15T03:42:32.092Z,126.2949
2018-02-15T03:43:37.568Z,126.2949
2018-02-15T03:44:43.045Z,125.1984
2018-02-15T03:45:48.789Z,126.7996
2018-02-15T03:46:53.665Z,126.2949
2018-02-15T03:47:59.135Z,126.0413
2018-02-15T03:49:04.631Z,125.452
2018-02-15T03:50:09.232Z,126.0413
2018-02-15T03:51:13.866Z,125.7876
2018-02-15T03:52:19.575Z,127.0506
2018-02-15T03:53:24.472Z,126.2949
2018-02-15T03:54:29.902Z,126.0413
2018-02-15T03:55:34.811Z,126.0413
2018-02-15T03:56:40.393Z,127.0506
2018-02-15T03:57:45.933Z,127.558
2018-02-15T03:58:51.417Z,127.0506
2018-02-15T03:59:56.044Z,127.0506
2018-02-15T04:01:01.775Z,127.0506
2018-02-15T04:02:06.663Z,127.558
2018-02-15T04:03:12.132Z,126.2949
2018-02-15T04:04:17.575Z,127.0506
2018-02-15T04:05:22.769Z,126.7996
2018-02-15T04:06:28.964Z,127.0506
2018-02-15T04:07:34.430Z,126.2949
2018-02-15T04:08:39.900Z,126.0413
2018-02-15T04:09:46.227Z,125.7876
2018-02-15T04:10:51.707Z,126.2949
2018-02-15T04:11:56.890Z,125.7876
2018-02-15T04:13:02.718Z,125.452
2018-02-15T04:14:07.920Z,125.452
2018-02-15T04:15:13.135Z,126.0413
2018-02-15T04:16:18.920Z,125.7876
2018-02-15T04:17:24.400Z,125.5366
2018-02-15T04:18:30.214Z,125.5366
2018-02-15T04:19:35.682Z,125.1984
2018-02-15T04:20:40.878Z,124.9447
2018-02-15T04:21:46.659Z,125.452
2018-02-15T04:22:52.122Z,125.5366
2018-02-15T04:23:57.588Z,125.5366
2018-02-15T04:25:02.719Z,124.44
2018-02-15T04:26:07.913Z,123.9353
2018-02-15T04:27:12.570Z,125.1984
2018-02-15T04:28:18.291Z,124.6937
2018-02-15T04:29:23.500Z,124.6937
2018-02-15T04:30:29.584Z,125.1984
2018-02-15T04:31:34.765Z,125.1984
2018-02-15T04:32:40.235Z,125.5366
2018-02-15T04:33:45.922Z,125.5366
2018-02-15T04:34:51.404Z,125.1984
2018-02-15T04:35:56.613Z,124.9447
2018-02-15T04:37:02.050Z,126.2949
2018-02-15T04:38:07.238Z,126.7996
2018-02-15T04:39:12.427Z,127.558
2018-02-15T04:40:18.165Z,127.558
2018-02-15T04:41:23.648Z,127.0506
2018-02-15T04:42:29.081Z,127.3043
2018-02-15T04:43:34.554Z,127.3043
2018-02-15T04:44:40.036Z,126.7996
2018-02-15T04:45:45.503Z,127.0506
2018-02-15T04:46:50.980Z,127.558
2018-02-15T04:47:55.919Z,126.0413
2018-02-15T04:49:01.381Z,125.5366
2018-02-15T04:50:06.841Z,125.7876
2018-02-15T04:51:12.322Z,126.0413
2018-02-15T04:52:17.785Z,127.0506
2018-02-15T04:53:23.241Z,127.558
2018-02-15T04:54:29.028Z,128.2318
2018-02-15T04:55:34.504Z,127.809
2018-02-15T04:56:39.983Z,128.4854
2018-02-15T04:57:45.520Z,127.558
2018-02-15T04:58:50.699Z,127.809
2018-02-15T04:59:56.160Z,126.2949
2018-02-15T05:01:01.886Z,125.7876
2018-02-15T05:02:07.064Z,126.2949
2018-02-15T05:03:12.582Z,126.2949
2018-02-15T05:04:18.304Z,126.0413
2018-02-15T05:05:23.803Z,127.0506
2018-02-15T05:06:29.801Z,127.3043
2018-02-15T05:07:34.983Z,125.452
2018-02-15T05:08:40.189Z,127.3043
2018-02-15T05:09:45.893Z,126.0413
2018-02-15T05:10:51.372Z,125.1984
2018-02-15T05:11:56.277Z,125.7876
2018-02-15T05:13:01.934Z,125.1984
2018-02-15T05:14:07.137Z,125.452
2018-02-15T05:15:12.596Z,124.9447
2018-02-15T05:16:18.304Z,125.5366
2018-02-15T05:17:23.515Z,125.5366
2018-02-15T05:18:29.336Z,125.1984
2018-02-15T05:19:34.203Z,126.0413
2018-02-15T05:20:39.111Z,125.1984
2018-02-15T05:21:44.626Z,125.452
2018-02-15T05:22:50.099Z,125.7876
2018-02-15T05:23:55.257Z,125.452
2018-02-15T05:25:01.149Z,126.0413
2018-02-15T05:26:06.043Z,125.452
2018-02-15T05:27:11.213Z,126.7996
2018-02-15T05:28:16.698Z,126.2949
2018-02-15T05:29:21.597Z,126.2949
2018-02-15T05:30:41.407Z,127.3043
2018-02-15T05:31:46.620Z,126.2949
2018-02-15T05:32:51.994Z,127.0506
2018-02-15T05:33:57.032Z,127.809
2018-02-15T05:35:02.195Z,127.3043
2018-02-15T05:36:07.675Z,127.558
2018-02-15T05:37:13.129Z,127.809
2018-02-15T05:38:18.605Z,128.0626
2018-02-15T05:39:23.799Z,128.4854
2018-02-15T05:40:44.117Z,127.809
2018-02-15T05:41:49.018Z,128.2318
2018-02-15T05:42:54.733Z,127.558
2018-02-15T05:43:59.956Z,128.7364
2018-02-15T05:45:05.168Z,129.1592
2018-02-15T05:46:10.426Z,129.1592
2018-02-15T05:47:15.617Z,128.7364
2018-02-15T05:48:20.529Z,129.1592
2018-02-15T05:49:26.004Z,128.9055
2018-02-15T05:50:31.475Z,128.9055
2018-02-15T05:51:37.172Z,128.4854
2018-02-15T05:52:42.639Z,127.558
2018-02-15T05:53:48.121Z,128.0626
2018-02-15T05:54:53.954Z,127.558
2018-02-15T05:55:59.448Z,128.7364
2018-02-15T05:57:04.366Z,129.4102
2018-02-15T05:58:10.111Z,128.7364
2018-02-15T05:59:15.595Z,129.6639
2018-02-15T06:00:21.077Z,130.4222
2018-02-15T06:01:26.647Z,129.9176
2018-02-15T06:02:31.837Z,130.1712
2018-02-15T06:03:37.705Z,130.5913
2018-02-15T06:04:43.172Z,130.4222
2018-02-15T06:05:48.348Z,130.1712
2018-02-15T06:06:53.838Z,129.6639
2018-02-15T06:07:58.460Z,129.4102
2018-02-15T06:09:04.244Z,129.4102
2018-02-15T06:10:08.850Z,130.1712
2018-02-15T06:11:13.967Z,129.6639
2018-02-15T06:12:19.151Z,129.9176
2018-02-15T06:13:24.814Z,129.1592
2018-02-15T06:14:29.996Z,128.9055
2018-02-15T06:15:36.021Z,129.1592
2018-02-15T06:16:41.216Z,129.1592
2018-02-15T06:17:46.696Z,129.9176
2018-02-15T06:18:52.619Z,129.1592
2018-02-15T06:19:57.796Z,129.4102
2018-02-15T06:21:03.265Z,129.9176
2018-02-15T06:22:09.149Z,129.4102
2018-02-15T06:23:14.325Z,129.9176
2018-02-15T06:24:19.782Z,129.6639
2018-02-15T06:25:25.578Z,129.6639
2018-02-15T06:26:31.250Z,129.6639
2018-02-15T06:27:36.695Z,129.9176
2018-02-15T06:28:41.868Z,130.845
2018-02-15T06:29:47.110Z,130.1712
2018-02-15T06:30:52.537Z,130.845
2018-02-15T06:31:57.726Z,130.4222
2018-02-15T06:33:03.237Z,131.3497
2018-02-15T06:34:08.670Z,130.845
2018-02-15T06:35:14.163Z,131.6033
2018-02-15T06:36:19.078Z,131.0987
2018-02-15T06:37:24.888Z,130.845
2018-02-15T06:38:30.353Z,130.5913
2018-02-15T06:39:35.978Z,130.1712
2018-02-15T06:40:40.881Z,131.0987
2018-02-15T06:41:47.073Z,130.1712
2018-02-15T06:42:52.347Z,130.845
2018-02-15T06:43:58.026Z,130.5913
2018-02-15T06:45:02.979Z,131.6033
2018-02-15T06:46:08.419Z,130.845
2018-02-15T06:47:13.325Z,130.845
2018-02-15T06:48:18.524Z,129.1592
2018-02-15T06:49:24.352Z,130.845
2018-02-15T06:50:29.265Z,130.4222
2018-02-15T06:51:35.154Z,131.3497
2018-02-15T06:52:40.615Z,131.0987
2018-02-15T06:53:45.225Z,131.0987
2018-02-15T06:54:50.770Z,130.4222
2018-02-15T06:55:56.261Z,129.9176
2018-02-15T06:57:01.177Z,130.1712
2018-02-15T06:58:06.643Z,130.845
2018-02-15T06:59:12.131Z,130.4222
2018-02-15T07:00:17.304Z,130.4222
2018-02-15T07:01:23.023Z,130.1712
2018-02-15T07:02:28.512Z,131.0987
2018-02-15T07:03:34.617Z,130.5913
2018-02-15T07:04:40.107Z,130.4222
2018-02-15T07:05:45.563Z,130.845
2018-02-15T07:06:51.333Z,130.5913
2018-02-15T07:07:56.813Z,129.9176
2018-02-15T07:09:02.267Z,130.4222
2018-02-15T07:10:08.051Z,131.3497
2018-02-15T07:11:12.944Z,130.845
2018-02-15T07:12:17.832Z,131.0987
2018-02-15T07:13:23.279Z,131.6033
2018-02-15T07:14:28.195Z,130.5913
2018-02-15T07:15:33.838Z,132.108
2018-02-15T07:16:38.748Z,131.6033
2018-02-15T07:17:43.933Z,133.0355
2018-02-15T07:18:49.083Z,132.869
2018-02-15T07:19:54.552Z,133.0355
2018-02-15T07:20:59.734Z,133.7965
2018-02-15T07:22:04.906Z,134.0475
2018-02-15T07:23:10.277Z,135.3132
2018-02-15T07:24:15.455Z,133.7965
2018-02-15T07:25:21.196Z,134.3012
2018-02-15T07:26:26.382Z,134.5548
2018-02-15T07:27:31.728Z,134.3012
2018-02-15T07:28:37.186Z,134.8058
2018-02-15T07:29:42.693Z,135.0595
2018-02-15T07:30:48.408Z,135.0595
2018-02-15T07:31:53.891Z,135.0595
2018-02-15T07:32:59.071Z,134.5548
2018-02-15T07:34:04.872Z,134.8058
2018-02-15T07:35:10.100Z,135.7359
2018-02-15T07:36:15.306Z,133.7965
2018-02-15T07:37:20.856Z,134.5548
2018-02-15T07:38:25.744Z,134.8058
2018-02-15T07:39:31.116Z,134.8058
2018-02-15T07:40:36.303Z,135.3132
2018-02-15T07:41:41.486Z,135.4823
2018-02-15T07:42:47.200Z,135.7359
2018-02-15T07:43:52.666Z,136.4943
2018-02-15T07:44:58.340Z,135.0595
2018-02-15T07:46:03.765Z,135.7359
2018-02-15T07:47:09.231Z,135.987
2018-02-15T07:48:14.348Z,135.987
2018-02-15T07:49:20.158Z,136.7479
2018-02-15T07:50:25.097Z,135.7359
2018-02-15T07:51:31.027Z,135.987
2018-02-15T07:52:36.242Z,136.999
2018-02-15T07:53:41.140Z,135.0595
2018-02-15T07:54:47.152Z,137.2526
2018-02-15T07:55:52.627Z,135.4823
2018-02-15T07:56:57.831Z,135.7359
2018-02-15T07:58:02.736Z,135.987
2018-02-15T07:59:07.640Z,136.999
2018-02-15T08:00:13.339Z,135.987
2018-02-15T08:01:19.182Z,136.7479
2018-02-15T08:02:24.372Z,136.2406
2018-02-15T08:03:30.188Z,135.7359
2018-02-15T08:04:35.372Z,135.7359
2018-02-15T08:05:40.854Z,136.4943
2018-02-15T08:06:46.290Z,136.4943
2018-02-15T08:07:51.761Z,136.4943
2018-02-15T08:08:57.243Z,135.987
2018-02-15T08:10:02.961Z,135.7359
2018-02-15T08:11:07.883Z,135.987
2018-02-15T08:12:13.373Z,135.987
2018-02-15T08:13:18.820Z,135.987
2018-02-15T08:14:24.306Z,136.2406
2018-02-15T08:15:29.155Z,136.2406
2018-02-15T08:16:34.631Z,135.3132
2018-02-15T08:17:40.000Z,135.7359
2018-02-15T08:18:45.692Z,135.0595
2018-02-15T08:19:50.864Z,135.987
2018-02-15T08:20:56.223Z,134.5548
2018-02-15T08:22:01.409Z,134.8058
2018-02-15T08:23:06.311Z,135.3132
2018-02-15T08:24:11.726Z,134.8058
2018-02-15T08:25:17.173Z,136.7479
2018-02-15T08:26:22.342Z,136.4943
2018-02-15T08:27:28.085Z,137.2526
2018-02-15T08:28:33.540Z,135.4823
2018-02-15T08:29:39.006Z,135.987
2018-02-15T08:30:44.742Z,134.8058
2018-02-15T08:31:49.931Z,135.4823
2018-02-15T08:32:55.115Z,135.4823
2018-02-15T08:34:00.385Z,135.7359
2018-02-15T08:35:05.554Z,136.2406
2018-02-15T08:36:11.213Z,135.7359
2018-02-15T08:37:16.941Z,136.4943
2018-02-15T08:38:22.427Z,135.987
2018-02-15T08:39:28.455Z,135.3132
2018-02-15T08:40:33.930Z,135.4823
2018-02-15T08:41:39.347Z,135.3132
2018-02-15T08:42:45.062Z,135.987
2018-02-15T08:43:50.269Z,135.7359
2018-02-15T08:44:55.158Z,135.4823
2018-02-15T08:46:01.062Z,135.7359
2018-02-15T08:47:06.229Z,135.3132
2018-02-15T08:48:11.404Z,135.7359
2018-02-15T08:49:16.607Z,136.2406
2018-02-15T08:50:22.068Z,136.7479
2018-02-15T08:51:27.619Z,136.2406
2018-02-15T08:52:32.550Z,136.2406
2018-02-15T08:53:38.017Z,136.7479
2018-02-15T08:54:43.760Z,135.3132
2018-02-15T08:55:48.966Z,136.7479
2018-02-15T08:56:54.647Z,135.7359
2018-02-15T08:57:59.827Z,136.7479
2018-02-15T08:59:04.730Z,136.4943
2018-02-15T09:00:10.417Z,135.7359
2018-02-15T09:01:16.198Z,135.4823
2018-02-15T09:02:21.389Z,134.5548
2018-02-15T09:03:27.095Z,134.5548
2018-02-15T09:04:32.577Z,134.3012
2018-02-15T09:05:38.034Z,134.8058
2018-02-15T09:06:43.605Z,135.4823
2018-02-15T09:07:48.220Z,134.8058
2018-02-15T09:08:53.391Z,135.0595
2018-02-15T09:09:59.092Z,134.5548
2018-02-15T09:11:04.962Z,134.3012
2018-02-15T09:12:10.186Z,135.5668
2018-02-15T09:13:15.940Z,135.4823
2018-02-15T09:14:21.405Z,135.7359
2018-02-15T09:15:27.306Z,135.4823
2018-02-15T09:16:32.776Z,135.3132
2018-02-15T09:17:38.262Z,135.7359
2018-02-15T09:18:43.719Z,135.3132
2018-02-15T09:19:49.399Z,135.987
2018-02-15T09:20:54.887Z,135.7359
2018-02-15T09:21:59.757Z,135.7359
2018-02-15T09:23:04.645Z,136.7479
2018-02-15T09:24:09.567Z,135.7359
2018-02-15T09:25:14.982Z,135.7359
2018-02-15T09:26:20.167Z,136.2406
2018-02-15T09:27:40.255Z,135.5668
2018-02-15T09:28:45.630Z,136.2406
2018-02-15T09:29:50.524Z,135.7359
2018-02-15T09:30:56.478Z,134.8058
2018-02-15T09:32:01.102Z,135.3132
2018-02-15T09:33:06.555Z,135.987
2018-02-15T09:34:11.542Z,135.987
2018-02-15T09:35:17.206Z,135.987
2018-02-15T09:36:22.398Z,135.5668
2018-02-15T09:37:28.079Z,135.3132
2018-02-15T09:38:33.560Z,135.3132
2018-02-15T09:39:38.992Z,135.5668
2018-02-15T09:40:44.466Z,135.987
2018-02-15T09:41:49.659Z,136.4943
2018-02-15T09:42:54.868Z,136.2406
2018-02-15T09:44:00.396Z,135.987
2018-02-15T09:45:04.460Z,136.2406
2018-02-15T09:46:09.373Z,136.999
2018-02-15T09:47:14.758Z,135.987
2018-02-15T09:48:20.224Z,137.2526
2018-02-15T09:49:25.109Z,137.2526
2018-02-15T09:50:30.272Z,137.5063
2018-02-15T09:51:36.238Z,136.4943
2018-02-15T09:52:41.435Z,136.4943
2018-02-15T09:53:46.958Z,137.2526
2018-02-15T09:54:52.668Z,135.987
2018-02-15T09:55:57.497Z,135.5668
2018-02-15T09:57:02.129Z,136.2406
2018-02-15T09:58:07.316Z,136.2406
2018-02-15T09:59:12.207Z,136.2406
2018-02-15T10:00:17.742Z,135.5668
2018-02-15T10:01:22.922Z,136.2406
2018-02-15T10:02:28.124Z,135.7359
2018-02-15T10:03:33.634Z,136.2406
2018-02-15T10:04:38.810Z,136.2406
2018-02-15T10:05:44.644Z,135.987
2018-02-15T10:06:50.217Z,135.987
2018-02-15T10:07:55.396Z,135.5668
2018-02-15T10:09:00.574Z,135.3132
2018-02-15T10:10:06.039Z,134.8058
2018-02-15T10:11:11.236Z,135.3132
2018-02-15T10:12:16.739Z,135.3132
2018-02-15T10:13:21.879Z,135.7359
2018-02-15T10:14:27.044Z,135.3132
2018-02-15T10:15:32.795Z,134.0475
2018-02-15T10:16:37.975Z,134.5548
2018-02-15T10:17:43.498Z,134.8058
2018-02-15T10:18:48.912Z,134.8058
2018-02-15T10:19:53.823Z,135.987
2018-02-15T10:20:59.026Z,135.5668
2018-02-15T10:22:04.197Z,136.2406
2018-02-15T10:23:09.732Z,136.2406
2018-02-15T10:24:14.914Z,136.2406
2018-02-15T10:25:20.313Z,136.2406
2018-02-15T10:26:25.510Z,137.2526
2018-02-15T10:27:30.766Z,136.7479
2018-02-15T10:28:35.975Z,136.999
2018-02-15T10:29:41.152Z,136.999
2018-02-15T10:30:46.893Z,136.7479
2018-02-15T10:31:52.096Z,138.6874
2018-02-15T10:32:57.005Z,138.1801
2018-02-15T10:34:02.226Z,138.011
2018-02-15T10:35:07.412Z,137.7599
2018-02-15T10:36:13.064Z,138.1801
2018-02-15T10:37:17.931Z,138.6874
2018-02-15T10:38:22.273Z,137.7599
2018-02-15T10:39:27.710Z,138.6874
2018-02-15T10:40:33.406Z,139.6994
2018-02-15T10:41:38.599Z,138.011
2018-02-15T10:42:44.334Z,138.9411
2018-02-15T10:43:49.253Z,138.6874
2018-02-15T10:44:55.050Z,139.4458
2018-02-15T10:45:59.927Z,138.6874
2018-02-15T10:47:04.843Z,138.9411
2018-02-15T10:48:10.311Z,139.1921
2018-02-15T10:49:15.737Z,138.9411
2018-02-15T10:50:21.411Z,139.9531
2018-02-15T10:51:41.498Z,139.9531
2018-02-15T10:52:46.986Z,140.4578
2018-02-15T10:53:52.150Z,138.9411
2018-02-15T10:54:57.713Z,140.6269
2018-02-15T10:56:03.183Z,140.4578
2018-02-15T10:57:08.673Z,139.6994
2018-02-15T10:58:14.374Z,139.4458
2018-02-15T10:59:19.851Z,140.6269
2018-02-15T11:00:40.151Z,139.6994
2018-02-15T11:01:45.373Z,139.6994
2018-02-15T11:02:50.897Z,140.2067
2018-02-15T11:03:56.688Z,140.796
2018-02-15T11:05:01.888Z,141.0496
2018-02-15T11:06:07.352Z,141.557
2018-02-15T11:07:13.105Z,141.0496
2018-02-15T11:08:18.578Z,140.6269
2018-02-15T11:09:24.544Z,141.0496
2018-02-15T11:10:44.543Z,141.0496
2018-02-15T11:11:49.194Z,140.6269
2018-02-15T11:12:54.657Z,141.0496
2018-02-15T11:13:59.835Z,141.0496
2018-02-15T11:15:04.736Z,141.557
2018-02-15T11:16:09.443Z,141.0496
2018-02-15T11:17:14.612Z,140.4578
2018-02-15T11:18:19.799Z,140.6269
2018-02-15T11:19:25.542Z,140.4578
2018-02-15T11:20:30.457Z,140.4578
2018-02-15T11:21:35.993Z,140.2067
2018-02-15T11:22:41.872Z,139.1921
2018-02-15T11:23:46.786Z,139.6994
2018-02-15T11:24:51.952Z,138.9411
2018-02-15T11:25:57.129Z,139.6994
2018-02-15T11:27:01.666Z,140.2067
2018-02-15T11:28:07.120Z,139.9531
2018-02-15T11:29:12.297Z,139.6994
2018-02-15T11:30:17.496Z,139.1921
2018-02-15T11:31:22.698Z,139.1921
2018-02-15T11:32:28.370Z,139.1921
2018-02-15T11:33:34.341Z,139.9531
2018-02-15T11:34:39.252Z,138.6874
2018-02-15T11:35:44.434Z,138.1801
2018-02-15T11:36:49.864Z,138.4337
2018-02-15T11:37:55.353Z,138.9411
2018-02-15T11:39:00.525Z,138.4337
2018-02-15T11:40:05.977Z,137.7599
2018-02-15T11:41:11.173Z,138.1801
2018-02-15T11:42:16.657Z,139.4458
2018-02-15T11:43:22.137Z,137.7599
2018-02-15T11:44:27.310Z,138.011
2018-02-15T11:45:32.731Z,138.6874
2018-02-15T11:46:37.921Z,138.011
2018-02-15T11:47:42.851Z,138.9411
2018-02-15T11:48:48.406Z,138.011
2018-02-15T11:49:53.641Z,139.6994
2018-02-15T11:50:58.571Z,138.6874
2018-02-15T11:52:04.236Z,139.6994
2018-02-15T11:53:09.451Z,138.6874
2018-02-15T11:54:14.536Z,137.5063
2018-02-15T11:55:20.135Z,137.7599
2018-02-15T11:56:25.614Z,138.1801
2018-02-15T11:57:31.049Z,138.4337
2018-02-15T11:58:35.945Z,137.2526
2018-02-15T11:59:41.417Z,138.1801
2018-02-15T12:00:46.960Z,137.7599
2018-02-15T12:01:51.856Z,138.011
2018-02-15T12:02:56.760Z,137.7599
2018-02-15T12:04:02.191Z,138.011
2018-02-15T12:05:07.096Z,137.5063
2018-02-15T12:06:12.561Z,137.7599
2018-02-15T12:07:18.064Z,137.7599
2018-02-15T12:08:23.550Z,137.5063
2018-02-15T12:09:28.982Z,137.7599
2018-02-15T12:10:34.179Z,137.7599
2018-02-15T12:11:39.096Z,137.7599
2018-02-15T12:12:44.529Z,138.011
2018-02-15T12:13:49.991Z,138.011
2018-02-15T12:14:55.205Z,138.4337
2018-02-15T12:16:00.691Z,138.1801
2018-02-15T12:17:05.893Z,138.4337
2018-02-15T12:18:11.151Z,138.6874
2018-02-15T12:19:16.909Z,138.1801
2018-02-15T12:20:22.118Z,138.1801
2018-02-15T12:21:27.305Z,138.1801
2018-02-15T12:22:32.940Z,138.1801
2018-02-15T12:23:38.127Z,139.1921
2018-02-15T12:24:43.556Z,139.1921
2018-02-15T12:25:48.749Z,139.4458
2018-02-15T12:26:53.945Z,139.6994
2018-02-15T12:27:59.370Z,139.6994
2018-02-15T12:29:04.841Z,140.6269
2018-02-15T12:30:10.305Z,139.1921
2018-02-15T12:31:15.753Z,138.9411
2018-02-15T12:32:21.206Z,139.9531
2018-02-15T12:33:40.711Z,139.4458
2018-02-15T12:34:45.905Z,139.6994
2018-02-15T12:35:51.102Z,139.6994
2018-02-15T12:36:56.552Z,138.9411
2018-02-15T12:38:02.045Z,138.1801
2018-02-15T12:39:07.250Z,139.1921
2018-02-15T12:40:12.718Z,139.4458
2018-02-15T12:41:17.932Z,139.9531
2018-02-15T12:42:22.556Z,139.6994
2018-02-15T12:43:28.256Z,139.4458
2018-02-15T12:44:33.735Z,139.9531
2018-02-15T12:45:39.008Z,140.2067
2018-02-15T12:46:44.479Z,139.4458
2018-02-15T12:47:49.681Z,139.6994
2018-02-15T12:48:55.116Z,139.6994
2018-02-15T12:50:00.304Z,139.9531
2018-02-15T12:51:05.215Z,139.9531
2018-02-15T12:52:10.704Z,140.2067
2018-02-15T12:53:15.615Z,140.4578